Lhasa, China
Current Conditions -  °F | °C
As of 1:50 PM on Thursday 23 Oct 2014 (Local Time) from VQPR Reporting Station
Few Clouds Few Clouds  
Wind Chill: 70°   Ceiling: Unl
Heat Index: 70°   Visibility: 6mi
Dew Point: 39°   Wind: 7mph
Humidity: 33%   Direction: 180°S
Pressure: 30.21"   Gusts: NA
Location:  29.7°N, 91.13°E
Report Text: VQPR 230550Z 18006KT 9999 FEW030 21/04 Q1023 NOSIG
Loading
Personal Weather Stations






























Interactive Weather Map
Tropical Storm Tracking
New forecast layout! Learn more

10-Day Weather Forecast

Advertisements
Track Severe Weather on mobile